sensor_id;sensor_type;location;lat;lon;timestamp;temperature;humidity
70695;DHT22;58269;52.246;21.104;2022-10-16T00:01:41;15.72;60.92
70695;DHT22;58269;52.246;21.104;2022-10-16T00:03:43;15.68;62.97
70695;DHT22;58269;52.246;21.104;2022-10-16T00:05:45;16.27;68.42
70695;DHT22;58269;52.246;21.104;2022-10-16T00:07:46;17.36;70.34
70695;DHT22;58269;52.246;21.104;2022-10-16T00:09:47;18.15;71.00
70695;DHT22;58269;52.246;21.104;2022-10-16T00:11:48;18.54;63.42
70695;DHT22;58269;52.246;21.104;2022-10-16T00:13:50;18.90;64.30
70695;DHT22;58269;52.246;21.104;2022-10-16T00:15:55;19.24;65.45
70695;DHT22;58269;52.246;21.104;2022-10-16T00:17:56;19.62;65.33
70695;DHT22;58269;52.246;21.104;2022-10-16T00:19:57;19.92;64.19
70695;DHT22;58269;52.246;21.104;2022-10-16T00:21:58;20.22;63.43
70695;DHT22;58269;52.246;21.104;2022-10-16T00:24:05;20.34;61.27
70695;DHT22;58269;52.246;21.104;2022-10-16T00:26:05;20.37;60.99
70695;DHT22;58269;52.246;21.104;2022-10-16T00:28:07;20.48;59.23
70695;DHT22;58269;52.246;21.104;2022-10-16T00:30:08;20.19;55.58
70695;DHT22;58269;52.246;21.104;2022-10-16T00:32:10;19.55;54.01
70695;DHT22;58269;52.246;21.104;2022-10-16T00:34:11;18.97;54.94
70695;DHT22;58269;52.246;21.104;2022-10-16T00:36:14;18.48;53.97
70695;DHT22;58269;52.246;21.104;2022-10-16T00:38:16;18.08;55.70
70695;DHT22;58269;52.246;21.104;2022-10-16T00:40:17;17.80;54.41
70695;DHT22;58269;52.246;21.104;2022-10-16T00:42:18;17.53;56.74
70695;DHT22;58269;52.246;21.104;2022-10-16T00:46:47;17.02;56.46
70695;DHT22;58269;52.246;21.104;2022-10-16T00:48:59;16.83;56.60
70695;DHT22;58269;52.246;21.104;2022-10-16T00:50:56;16.58;57.92
70695;DHT22;58269;52.246;21.104;2022-10-16T00:52:59;16.41;58.52
70695;DHT22;58269;52.246;21.104;2022-10-16T00:55:02;16.26;58.60
70695;DHT22;58269;52.246;21.104;2022-10-16T00:57:04;16.12;58.92
70695;DHT22;58269;52.246;21.104;2022-10-16T00:59:10;16.00;60.56
70695;DHT22;58269;52.246;21.104;2022-10-16T01:01:10;15.86;60.50
70695;DHT22;58269;52.246;21.104;2022-10-16T01:03:32;16.02;65.96
70695;DHT22;58269;52.246;21.104;2022-10-16T01:05:39;17.29;70.62
70695;DHT22;58269;52.246;21.104;2022-10-16T01:08:01;18.08;69.12
70695;DHT22;58269;52.246;21.104;2022-10-16T01:10:45;18.51;66.65
70695;DHT22;58269;52.246;21.104;2022-10-16T01:12:30;18.83;65.49
70695;DHT22;58269;52.246;21.104;2022-10-16T01:14:48;19.10;63.93
70695;DHT22;58269;52.246;21.104;2022-10-16T01:16:53;19.31;64.33
70695;DHT22;58269;52.246;21.104;2022-10-16T01:18:58;19.45;60.46
70695;DHT22;58269;52.246;21.104;2022-10-16T01:22:02;18.99;58.01
70695;DHT22;58269;52.246;21.104;2022-10-16T01:27:44;17.46;59.30
70695;DHT22;58269;52.246;21.104;2022-10-16T01:30:10;17.18;57.26
70695;DHT22;58269;52.246;21.104;2022-10-16T01:32:30;16.91;57.02
70695;DHT22;58269;52.246;21.104;2022-10-16T01:34:33;16.70;60.51
70695;DHT22;58269;52.246;21.104;2022-10-16T01:36:40;16.48;58.48
70695;DHT22;58269;52.246;21.104;2022-10-16T01:38:43;16.37;60.87
70695;DHT22;58269;52.246;21.104;2022-10-16T01:40:47;16.20;59.84
70695;DHT22;58269;52.246;21.104;2022-10-16T01:42:52;16.08;59.82
70695;DHT22;58269;52.246;21.104;2022-10-16T01:44:53;15.95;59.71
70695;DHT22;58269;52.246;21.104;2022-10-16T01:46:55;15.85;60.18
70695;DHT22;58269;52.246;21.104;2022-10-16T01:49:00;15.76;60.03
70695;DHT22;58269;52.246;21.104;2022-10-16T01:51:04;15.66;60.14
70695;DHT22;58269;52.246;21.104;2022-10-16T01:53:06;15.60;60.55
70695;DHT22;58269;52.246;21.104;2022-10-16T01:55:10;15.52;61.04
70695;DHT22;58269;52.246;21.104;2022-10-16T01:57:12;15.48;60.90
70695;DHT22;58269;52.246;21.104;2022-10-16T01:59:16;15.44;61.13
70695;DHT22;58269;52.246;21.104;2022-10-16T02:01:20;15.41;61.80
70695;DHT22;58269;52.246;21.104;2022-10-16T02:03:22;15.48;65.37
70695;DHT22;58269;52.246;21.104;2022-10-16T02:05:29;16.54;72.26
70695;DHT22;58269;52.246;21.104;2022-10-16T02:07:31;17.72;73.72
70695;DHT22;58269;52.246;21.104;2022-10-16T02:09:33;18.29;70.55
70695;DHT22;58269;52.246;21.104;2022-10-16T02:11:35;18.72;70.35
70695;DHT22;58269;52.246;21.104;2022-10-16T02:15:46;19.66;67.03
70695;DHT22;58269;52.246;21.104;2022-10-16T02:17:48;19.96;64.71
70695;DHT22;58269;52.246;21.104;2022-10-16T02:19:50;20.22;64.98
70695;DHT22;58269;52.246;21.104;2022-10-16T02:21:57;20.44;64.28
70695;DHT22;58269;52.246;21.104;2022-10-16T02:26:32;20.61;59.09
70695;DHT22;58269;52.246;21.104;2022-10-16T02:28:40;19.95;55.94
70695;DHT22;58269;52.246;21.104;2022-10-16T02:30:44;19.24;54.90
70695;DHT22;58269;52.246;21.104;2022-10-16T02:32:46;18.56;54.92
70695;DHT22;58269;52.246;21.104;2022-10-16T02:34:49;18.11;54.42
70695;DHT22;58269;52.246;21.104;2022-10-16T02:36:50;17.73;55.98
70695;DHT22;58269;52.246;21.104;2022-10-16T02:38:52;17.40;55.90
70695;DHT22;58269;52.246;21.104;2022-10-16T02:40:54;17.14;56.15
70695;DHT22;58269;52.246;21.104;2022-10-16T02:42:55;16.88;56.83
70695;DHT22;58269;52.246;21.104;2022-10-16T02:44:56;16.67;58.63
70695;DHT22;58269;52.246;21.104;2022-10-16T02:46:57;16.47;57.20
70695;DHT22;58269;52.246;21.104;2022-10-16T02:48:58;16.27;57.64
70695;DHT22;58269;52.246;21.104;2022-10-16T02:50:59;16.12;58.10
70695;DHT22;58269;52.246;21.104;2022-10-16T02:53:00;15.97;61.57
70695;DHT22;58269;52.246;21.104;2022-10-16T02:55:01;16.29;64.53
70695;DHT22;58269;52.246;21.104;2022-10-16T02:57:02;17.35;68.52
70695;DHT22;58269;52.246;21.104;2022-10-16T02:59:04;18.14;67.79
70695;DHT22;58269;52.246;21.104;2022-10-16T03:01:05;18.70;63.27
70695;DHT22;58269;52.246;21.104;2022-10-16T03:03:06;19.13;65.11
70695;DHT22;58269;52.246;21.104;2022-10-16T03:05:07;19.24;63.57
70695;DHT22;58269;52.246;21.104;2022-10-16T03:07:09;19.34;62.58
70695;DHT22;58269;52.246;21.104;2022-10-16T03:09:10;19.43;62.58
70695;DHT22;58269;52.246;21.104;2022-10-16T03:11:11;19.45;61.53
70695;DHT22;58269;52.246;21.104;2022-10-16T03:13:12;19.55;62.28
70695;DHT22;58269;52.246;21.104;2022-10-16T03:15:13;19.52;58.30
70695;DHT22;58269;52.246;21.104;2022-10-16T03:17:14;18.97;56.39
70695;DHT22;58269;52.246;21.104;2022-10-16T03:19:17;18.38;55.56
70695;DHT22;58269;52.246;21.104;2022-10-16T03:21:18;17.88;55.59
70695;DHT22;58269;52.246;21.104;2022-10-16T03:23:19;17.50;56.62
70695;DHT22;58269;52.246;21.104;2022-10-16T03:25:20;17.18;60.52
70695;DHT22;58269;52.246;21.104;2022-10-16T03:27:21;16.88;57.23
70695;DHT22;58269;52.246;21.104;2022-10-16T03:29:22;16.64;57.11
70695;DHT22;58269;52.246;21.104;2022-10-16T03:31:23;16.43;62.97
70695;DHT22;58269;52.246;21.104;2022-10-16T03:33:24;16.77;65.18
70695;DHT22;58269;52.246;21.104;2022-10-16T03:35:25;17.76;67.81
70695;DHT22;58269;52.246;21.104;2022-10-16T03:37:26;18.36;66.85
70695;DHT22;58269;52.246;21.104;2022-10-16T03:39:27;18.72;65.37
70695;DHT22;58269;52.246;21.104;2022-10-16T03:41:28;18.96;64.54
70695;DHT22;58269;52.246;21.104;2022-10-16T03:43:29;19.07;62.41
70695;DHT22;58269;52.246;21.104;2022-10-16T03:45:30;19.23;62.70
70695;DHT22;58269;52.246;21.104;2022-10-16T03:47:31;19.41;62.87
70695;DHT22;58269;52.246;21.104;2022-10-16T03:49:33;19.48;61.57
70695;DHT22;58269;52.246;21.104;2022-10-16T03:51:34;19.45;61.03
70695;DHT22;58269;52.246;21.104;2022-10-16T03:53:35;19.41;60.74
70695;DHT22;58269;52.246;21.104;2022-10-16T03:55:36;19.43;58.91
70695;DHT22;58269;52.246;21.104;2022-10-16T03:57:37;19.14;57.01
70695;DHT22;58269;52.246;21.104;2022-10-16T03:59:38;18.52;55.42
70695;DHT22;58269;52.246;21.104;2022-10-16T04:01:40;17.98;59.02
70695;DHT22;58269;52.246;21.104;2022-10-16T04:03:41;17.54;56.94
70695;DHT22;58269;52.246;21.104;2022-10-16T04:05:42;17.22;57.80
70695;DHT22;58269;52.246;21.104;2022-10-16T04:07:44;16.92;56.33
70695;DHT22;58269;52.246;21.104;2022-10-16T04:09:45;16.67;56.89
70695;DHT22;58269;52.246;21.104;2022-10-16T04:11:46;16.48;56.67
70695;DHT22;58269;52.246;21.104;2022-10-16T04:13:47;16.27;57.47
70695;DHT22;58269;52.246;21.104;2022-10-16T04:15:48;16.12;58.88
70695;DHT22;58269;52.246;21.104;2022-10-16T04:17:49;15.92;58.69
70695;DHT22;58269;52.246;21.104;2022-10-16T04:19:50;15.79;58.57
70695;DHT22;58269;52.246;21.104;2022-10-16T04:21:51;15.62;58.90
70695;DHT22;58269;52.246;21.104;2022-10-16T04:23:52;15.50;59.52
70695;DHT22;58269;52.246;21.104;2022-10-16T04:25:53;15.38;59.42
70695;DHT22;58269;52.246;21.104;2022-10-16T04:27:54;15.29;59.68
70695;DHT22;58269;52.246;21.104;2022-10-16T04:29:55;15.18;60.71
70695;DHT22;58269;52.246;21.104;2022-10-16T04:31:56;15.50;65.36
70695;DHT22;58269;52.246;21.104;2022-10-16T04:33:58;16.51;70.03
70695;DHT22;58269;52.246;21.104;2022-10-16T04:36:00;17.46;71.18
70695;DHT22;58269;52.246;21.104;2022-10-16T04:38:01;18.07;69.35
70695;DHT22;58269;52.246;21.104;2022-10-16T04:40:03;18.51;66.97
70695;DHT22;58269;52.246;21.104;2022-10-16T04:42:04;18.86;67.01
70695;DHT22;58269;52.246;21.104;2022-10-16T04:44:05;19.04;66.16
70695;DHT22;58269;52.246;21.104;2022-10-16T04:46:06;19.20;65.15
70695;DHT22;58269;52.246;21.104;2022-10-16T04:48:07;19.27;63.84
70695;DHT22;58269;52.246;21.104;2022-10-16T04:50:08;19.35;63.33
70695;DHT22;58269;52.246;21.104;2022-10-16T04:52:09;19.50;63.23
70695;DHT22;58269;52.246;21.104;2022-10-16T04:54:10;19.61;59.38
70695;DHT22;58269;52.246;21.104;2022-10-16T04:56:11;19.29;57.89
70695;DHT22;58269;52.246;21.104;2022-10-16T04:58:13;18.58;56.08
70695;DHT22;58269;52.246;21.104;2022-10-16T05:00:14;18.01;56.16
70695;DHT22;58269;52.246;21.104;2022-10-16T05:02:15;17.54;56.11
70695;DHT22;58269;52.246;21.104;2022-10-16T05:04:16;17.15;55.67
70695;DHT22;58269;52.246;21.104;2022-10-16T05:06:17;16.81;56.39
70695;DHT22;58269;52.246;21.104;2022-10-16T05:08:18;16.51;60.52
70695;DHT22;58269;52.246;21.104;2022-10-16T05:10:19;16.25;58.62
70695;DHT22;58269;52.246;21.104;2022-10-16T05:12:20;16.03;59.85
70695;DHT22;58269;52.246;21.104;2022-10-16T05:14:21;15.82;64.17
70695;DHT22;58269;52.246;21.104;2022-10-16T05:16:22;16.41;66.45
70695;DHT22;58269;52.246;21.104;2022-10-16T05:18:23;17.52;69.76
70695;DHT22;58269;52.246;21.104;2022-10-16T05:20:24;18.35;69.46
70695;DHT22;58269;52.246;21.104;2022-10-16T05:22:25;18.92;66.81
70695;DHT22;58269;52.246;21.104;2022-10-16T05:24:26;19.26;62.32
70695;DHT22;58269;52.246;21.104;2022-10-16T05:26:27;19.40;60.23
70695;DHT22;58269;52.246;21.104;2022-10-16T05:28:29;18.87;56.86
70695;DHT22;58269;52.246;21.104;2022-10-16T05:30:30;18.15;56.33
70695;DHT22;58269;52.246;21.104;2022-10-16T05:32:31;17.62;56.23
70695;DHT22;58269;52.246;21.104;2022-10-16T05:34:33;17.19;56.90
70695;DHT22;58269;52.246;21.104;2022-10-16T05:36:33;16.87;56.69
70695;DHT22;58269;52.246;21.104;2022-10-16T05:38:35;16.61;57.33
70695;DHT22;58269;52.246;21.104;2022-10-16T05:40:36;16.39;58.95
70695;DHT22;58269;52.246;21.104;2022-10-16T05:42:38;16.13;59.69
70695;DHT22;58269;52.246;21.104;2022-10-16T05:44:39;15.96;58.39
70695;DHT22;58269;52.246;21.104;2022-10-16T05:46:40;15.76;58.11
70695;DHT22;58269;52.246;21.104;2022-10-16T05:48:41;15.69;64.66
70695;DHT22;58269;52.246;21.104;2022-10-16T05:50:42;16.78;70.39
70695;DHT22;58269;52.246;21.104;2022-10-16T05:52:43;17.84;70.36
70695;DHT22;58269;52.246;21.104;2022-10-16T05:54:44;18.55;69.66
70695;DHT22;58269;52.246;21.104;2022-10-16T05:56:45;19.07;67.96
70695;DHT22;58269;52.246;21.104;2022-10-16T05:58:46;19.40;66.66
70695;DHT22;58269;52.246;21.104;2022-10-16T06:00:55;19.72;65.71
70695;DHT22;58269;52.246;21.104;2022-10-16T06:02:56;19.98;64.14
70695;DHT22;58269;52.246;21.104;2022-10-16T06:04:57;20.22;63.72
70695;DHT22;58269;52.246;21.104;2022-10-16T06:06:59;20.39;62.49
70695;DHT22;58269;52.246;21.104;2022-10-16T06:09:02;20.27;57.22
70695;DHT22;58269;52.246;21.104;2022-10-16T06:11:05;19.58;54.92
70695;DHT22;58269;52.246;21.104;2022-10-16T06:13:07;18.80;53.85
70695;DHT22;58269;52.246;21.104;2022-10-16T06:15:08;18.15;55.15
70695;DHT22;58269;52.246;21.104;2022-10-16T06:17:09;17.67;58.18
70695;DHT22;58269;52.246;21.104;2022-10-16T06:19:10;17.26;57.25
70695;DHT22;58269;52.246;21.104;2022-10-16T06:21:14;16.90;56.20
70695;DHT22;58269;52.246;21.104;2022-10-16T06:23:16;16.63;56.71
70695;DHT22;58269;52.246;21.104;2022-10-16T06:25:17;16.37;58.06
70695;DHT22;58269;52.246;21.104;2022-10-16T06:27:18;16.12;57.68
70695;DHT22;58269;52.246;21.104;2022-10-16T06:29:19;15.96;58.08
70695;DHT22;58269;52.246;21.104;2022-10-16T06:31:20;15.76;58.85
70695;DHT22;58269;52.246;21.104;2022-10-16T06:33:21;15.64;62.87
70695;DHT22;58269;52.246;21.104;2022-10-16T06:35:23;16.17;65.97
70695;DHT22;58269;52.246;21.104;2022-10-16T06:37:24;17.15;65.93
70695;DHT22;58269;52.246;21.104;2022-10-16T06:39:25;17.98;68.39
70695;DHT22;58269;52.246;21.104;2022-10-16T06:41:26;18.49;65.97
70695;DHT22;58269;52.246;21.104;2022-10-16T06:43:30;18.89;65.25
70695;DHT22;58269;52.246;21.104;2022-10-16T06:45:37;18.89;58.87
70695;DHT22;58269;52.246;21.104;2022-10-16T06:47:38;18.33;57.45
70695;DHT22;58269;52.246;21.104;2022-10-16T06:49:39;17.80;59.79
70695;DHT22;58269;52.246;21.104;2022-10-16T06:51:40;17.38;58.87
70695;DHT22;58269;52.246;21.104;2022-10-16T06:53:48;17.08;56.46
70695;DHT22;58269;52.246;21.104;2022-10-16T06:55:47;16.77;57.80
70695;DHT22;58269;52.246;21.104;2022-10-16T06:57:48;16.58;57.41
70695;DHT22;58269;52.246;21.104;2022-10-16T06:59:49;16.41;57.16
70695;DHT22;58269;52.246;21.104;2022-10-16T07:01:50;16.29;62.69
70695;DHT22;58269;52.246;21.104;2022-10-16T07:03:52;16.79;65.19
70695;DHT22;58269;52.246;21.104;2022-10-16T07:05:53;17.83;66.09
70695;DHT22;58269;52.246;21.104;2022-10-16T07:07:54;18.51;60.73
70695;DHT22;58269;52.246;21.104;2022-10-16T07:09:55;18.92;59.62
70695;DHT22;58269;52.246;21.104;2022-10-16T07:11:56;18.83;58.36
70695;DHT22;58269;52.246;21.104;2022-10-16T07:13:58;18.25;59.45
70695;DHT22;58269;52.246;21.104;2022-10-16T07:16:04;17.83;58.53
70695;DHT22;58269;52.246;21.104;2022-10-16T07:18:06;17.48;56.58
70695;DHT22;58269;52.246;21.104;2022-10-16T07:20:09;17.18;59.32
70695;DHT22;58269;52.246;21.104;2022-10-16T07:22:10;17.15;63.46
70695;DHT22;58269;52.246;21.104;2022-10-16T07:24:13;17.97;61.90
70695;DHT22;58269;52.246;21.104;2022-10-16T07:26:14;18.90;64.74
70695;DHT22;58269;52.246;21.104;2022-10-16T07:28:16;19.19;59.12
70695;DHT22;58269;52.246;21.104;2022-10-16T07:30:17;18.70;57.65
70695;DHT22;58269;52.246;21.104;2022-10-16T07:32:18;18.15;58.61
70695;DHT22;58269;52.246;21.104;2022-10-16T07:34:19;17.74;56.55
70695;DHT22;58269;52.246;21.104;2022-10-16T07:36:22;17.40;56.56
70695;DHT22;58269;52.246;21.104;2022-10-16T07:38:23;17.15;57.08
70695;DHT22;58269;52.246;21.104;2022-10-16T07:40:24;16.94;56.60
70695;DHT22;58269;52.246;21.104;2022-10-16T07:42:27;16.77;58.02
70695;DHT22;58269;52.246;21.104;2022-10-16T07:44:29;16.61;58.82
70695;DHT22;58269;52.246;21.104;2022-10-16T07:46:30;16.50;59.41
70695;DHT22;58269;52.246;21.104;2022-10-16T07:48:33;16.40;58.39
70695;DHT22;58269;52.246;21.104;2022-10-16T07:50:34;16.34;60.06
70695;DHT22;58269;52.246;21.104;2022-10-16T07:52:35;16.57;64.79
70695;DHT22;58269;52.246;21.104;2022-10-16T07:54:36;17.63;66.39
70695;DHT22;58269;52.246;21.104;2022-10-16T07:56:37;18.49;67.16
70695;DHT22;58269;52.246;21.104;2022-10-16T07:58:38;19.14;65.44
70695;DHT22;58269;52.246;21.104;2022-10-16T08:00:39;19.64;64.82
70695;DHT22;58269;52.246;21.104;2022-10-16T08:02:40;19.98;64.38
70695;DHT22;58269;52.246;21.104;2022-10-16T08:04:41;20.24;62.87
70695;DHT22;58269;52.246;21.104;2022-10-16T08:06:43;20.42;57.70
70695;DHT22;58269;52.246;21.104;2022-10-16T08:08:44;20.36;56.90
70695;DHT22;58269;52.246;21.104;2022-10-16T08:10:44;19.85;56.56
70695;DHT22;58269;52.246;21.104;2022-10-16T08:12:46;19.38;55.24
70695;DHT22;58269;52.246;21.104;2022-10-16T08:14:47;18.94;58.32
70695;DHT22;58269;52.246;21.104;2022-10-16T08:16:48;18.49;61.28
70695;DHT22;58269;52.246;21.104;2022-10-16T08:18:49;18.31;58.67
70695;DHT22;58269;52.246;21.104;2022-10-16T08:20:56;18.05;61.84
70695;DHT22;58269;52.246;21.104;2022-10-16T08:22:59;18.33;62.43
70695;DHT22;58269;52.246;21.104;2022-10-16T08:25:00;19.38;64.54
70695;DHT22;58269;52.246;21.104;2022-10-16T08:27:01;20.12;60.04
70695;DHT22;58269;52.246;21.104;2022-10-16T08:29:03;20.29;57.80
70695;DHT22;58269;52.246;21.104;2022-10-16T08:31:12;19.85;57.35
70695;DHT22;58269;52.246;21.104;2022-10-16T08:33:14;19.37;57.69
70695;DHT22;58269;52.246;21.104;2022-10-16T08:35:15;19.02;60.27
70695;DHT22;58269;52.246;21.104;2022-10-16T08:37:16;18.73;60.83
70695;DHT22;58269;52.246;21.104;2022-10-16T08:39:17;18.49;61.81
70695;DHT22;58269;52.246;21.104;2022-10-16T08:43:35;19.47;66.25
70695;DHT22;58269;52.246;21.104;2022-10-16T08:50:29;19.50;58.73
70695;DHT22;58269;52.246;21.104;2022-10-16T08:52:34;19.13;59.61
70695;DHT22;58269;52.246;21.104;2022-10-16T08:54:37;18.86;61.44
70695;DHT22;58269;52.246;21.104;2022-10-16T08:56:41;18.66;61.19
70695;DHT22;58269;52.246;21.104;2022-10-16T08:58:48;18.52;62.78
70695;DHT22;58269;52.246;21.104;2022-10-16T09:00:58;19.23;63.03
70695;DHT22;58269;52.246;21.104;2022-10-16T09:05:24;20.81;62.37
70695;DHT22;58269;52.246;21.104;2022-10-16T09:07:36;20.95;56.44
70695;DHT22;58269;52.246;21.104;2022-10-16T09:16:36;19.45;59.88
70695;DHT22;58269;52.246;21.104;2022-10-16T09:25:14;19.04;62.71
70695;DHT22;58269;52.246;21.104;2022-10-16T09:27:16;20.11;63.94
70695;DHT22;58269;52.246;21.104;2022-10-16T09:29:19;20.83;57.36
70695;DHT22;58269;52.246;21.104;2022-10-16T09:31:22;20.94;57.14
70695;DHT22;58269;52.246;21.104;2022-10-16T09:33:25;20.57;57.94
70695;DHT22;58269;52.246;21.104;2022-10-16T09:35:48;20.22;57.59
70695;DHT22;58269;52.246;21.104;2022-10-16T09:37:43;19.89;59.40
70695;DHT22;58269;52.246;21.104;2022-10-16T09:39:47;19.69;60.34
70695;DHT22;58269;52.246;21.104;2022-10-16T09:41:48;19.55;60.86
70695;DHT22;58269;52.246;21.104;2022-10-16T09:43:55;19.44;61.01
70695;DHT22;58269;52.246;21.104;2022-10-16T09:46:02;19.35;60.23
70695;DHT22;58269;52.246;21.104;2022-10-16T09:48:11;19.26;61.20
70695;DHT22;58269;52.246;21.104;2022-10-16T09:50:25;19.20;60.47
70695;DHT22;58269;52.246;21.104;2022-10-16T09:52:27;19.33;62.70
70695;DHT22;58269;52.246;21.104;2022-10-16T09:54:28;20.29;64.69
70695;DHT22;58269;52.246;21.104;2022-10-16T09:56:31;21.08;60.09
70695;DHT22;58269;52.246;21.104;2022-10-16T09:58:33;21.06;57.86
70695;DHT22;58269;52.246;21.104;2022-10-16T10:00:34;20.73;58.36
70695;DHT22;58269;52.246;21.104;2022-10-16T10:02:36;20.47;57.16
70695;DHT22;58269;52.246;21.104;2022-10-16T10:04:53;20.23;58.90
70695;DHT22;58269;52.246;21.104;2022-10-16T10:06:55;20.09;59.67
70695;DHT22;58269;52.246;21.104;2022-10-16T10:11:37;19.93;59.34
70695;DHT22;58269;52.246;21.104;2022-10-16T10:13:38;19.83;59.88
70695;DHT22;58269;52.246;21.104;2022-10-16T10:15:41;19.82;61.55
70695;DHT22;58269;52.246;21.104;2022-10-16T10:17:51;19.82;60.71
70695;DHT22;58269;52.246;21.104;2022-10-16T10:19:51;19.78;62.10
70695;DHT22;58269;52.246;21.104;2022-10-16T10:21:53;19.76;62.25
70695;DHT22;58269;52.246;21.104;2022-10-16T10:23:57;20.34;62.36
70695;DHT22;58269;52.246;21.104;2022-10-16T10:26:16;21.29;59.23
70695;DHT22;58269;52.246;21.104;2022-10-16T10:31:10;21.36;58.03
70695;DHT22;58269;52.246;21.104;2022-10-16T10:37:55;20.70;58.91
70695;DHT22;58269;52.246;21.104;2022-10-16T10:46:51;20.29;59.91
70695;DHT22;58269;52.246;21.104;2022-10-16T10:48:59;20.22;60.71
70695;DHT22;58269;52.246;21.104;2022-10-16T10:51:05;20.16;61.24
70695;DHT22;58269;52.246;21.104;2022-10-16T10:53:18;20.13;61.15
70695;DHT22;58269;52.246;21.104;2022-10-16T10:58:14;20.02;61.86
70695;DHT22;58269;52.246;21.104;2022-10-16T11:00:56;19.99;60.96
70695;DHT22;58269;52.246;21.104;2022-10-16T11:02:32;19.98;61.23
70695;DHT22;58269;52.246;21.104;2022-10-16T11:06:43;20.05;62.05
70695;DHT22;58269;52.246;21.104;2022-10-16T11:09:31;20.06;61.59
70695;DHT22;58269;52.246;21.104;2022-10-16T11:11:04;20.12;61.96
70695;DHT22;58269;52.246;21.104;2022-10-16T11:13:32;20.17;62.02
70695;DHT22;58269;52.246;21.104;2022-10-16T11:15:36;20.22;61.16
70695;DHT22;58269;52.246;21.104;2022-10-16T11:17:59;20.26;61.80
70695;DHT22;58269;52.246;21.104;2022-10-16T11:20:11;20.27;61.26
70695;DHT22;58269;52.246;21.104;2022-10-16T11:24:48;20.29;60.48
70695;DHT22;58269;52.246;21.104;2022-10-16T11:26:46;20.30;60.51
70695;DHT22;58269;52.246;21.104;2022-10-16T11:28:49;20.30;60.80
70695;DHT22;58269;52.246;21.104;2022-10-16T11:31:08;20.39;60.54
70695;DHT22;58269;52.246;21.104;2022-10-16T11:33:27;20.43;60.91
70695;DHT22;58269;52.246;21.104;2022-10-16T11:35:37;20.47;60.67
70695;DHT22;58269;52.246;21.104;2022-10-16T11:37:41;20.50;60.68
70695;DHT22;58269;52.246;21.104;2022-10-16T11:39:42;20.58;61.07
70695;DHT22;58269;52.246;21.104;2022-10-16T11:46:24;20.68;60.57
70695;DHT22;58269;52.246;21.104;2022-10-16T11:48:36;20.74;60.82
70695;DHT22;58269;52.246;21.104;2022-10-16T11:50:40;20.83;60.59
70695;DHT22;58269;52.246;21.104;2022-10-16T11:55:01;21.19;59.82
70695;DHT22;58269;52.246;21.104;2022-10-16T11:57:08;21.35;59.74
70695;DHT22;58269;52.246;21.104;2022-10-16T11:59:23;21.46;59.68
70695;DHT22;58269;52.246;21.104;2022-10-16T12:01:33;21.55;59.14
70695;DHT22;58269;52.246;21.104;2022-10-16T12:06:23;21.62;57.71
70695;DHT22;58269;52.246;21.104;2022-10-16T12:08:24;21.49;58.28
70695;DHT22;58269;52.246;21.104;2022-10-16T12:10:27;21.46;58.39
70695;DHT22;58269;52.246;21.104;2022-10-16T12:12:38;21.42;58.01
70695;DHT22;58269;52.246;21.104;2022-10-16T12:14:39;21.36;58.38
70695;DHT22;58269;52.246;21.104;2022-10-16T12:19:14;21.28;58.31
70695;DHT22;58269;52.246;21.104;2022-10-16T12:21:17;21.23;58.51
70695;DHT22;58269;52.246;21.104;2022-10-16T12:23:20;21.16;58.47
70695;DHT22;58269;52.246;21.104;2022-10-16T12:25:29;21.16;58.83
70695;DHT22;58269;52.246;21.104;2022-10-16T12:27:31;21.18;58.47
70695;DHT22;58269;52.246;21.104;2022-10-16T12:29:38;21.16;58.43
70695;DHT22;58269;52.246;21.104;2022-10-16T12:31:47;21.15;58.37
70695;DHT22;58269;52.246;21.104;2022-10-16T12:34:01;21.12;57.82
70695;DHT22;58269;52.246;21.104;2022-10-16T12:36:04;21.06;58.10
70695;DHT22;58269;52.246;21.104;2022-10-16T12:38:21;20.98;58.26
70695;DHT22;58269;52.246;21.104;2022-10-16T12:42:32;20.94;58.94
70695;DHT22;58269;52.246;21.104;2022-10-16T12:44:34;20.91;58.92
70695;DHT22;58269;52.246;21.104;2022-10-16T12:46:38;20.90;59.04
70695;DHT22;58269;52.246;21.104;2022-10-16T12:48:42;20.90;59.00
70695;DHT22;58269;52.246;21.104;2022-10-16T12:50:45;20.90;58.81
70695;DHT22;58269;52.246;21.104;2022-10-16T12:52:46;20.83;59.09
70695;DHT22;58269;52.246;21.104;2022-10-16T12:54:47;20.80;58.83
70695;DHT22;58269;52.246;21.104;2022-10-16T12:59:22;20.67;59.15
70695;DHT22;58269;52.246;21.104;2022-10-16T13:01:34;20.65;59.24
70695;DHT22;58269;52.246;21.104;2022-10-16T13:04:00;20.63;59.34
70695;DHT22;58269;52.246;21.104;2022-10-16T13:06:11;20.56;59.57
70695;DHT22;58269;52.246;21.104;2022-10-16T13:17:59;20.34;59.97
70695;DHT22;58269;52.246;21.104;2022-10-16T13:22:24;20.29;60.42
70695;DHT22;58269;52.246;21.104;2022-10-16T13:27:05;20.19;60.26
70695;DHT22;58269;52.246;21.104;2022-10-16T13:29:04;20.16;60.35
70695;DHT22;58269;52.246;21.104;2022-10-16T13:31:05;20.12;60.96
70695;DHT22;58269;52.246;21.104;2022-10-16T13:33:33;20.09;60.71
70695;DHT22;58269;52.246;21.104;2022-10-16T13:35:46;20.06;60.82
70695;DHT22;58269;52.246;21.104;2022-10-16T13:37:38;20.06;60.99
70695;DHT22;58269;52.246;21.104;2022-10-16T13:39:40;20.02;61.29
70695;DHT22;58269;52.246;21.104;2022-10-16T13:41:41;19.98;61.04
70695;DHT22;58269;52.246;21.104;2022-10-16T13:43:46;19.96;61.16
70695;DHT22;58269;52.246;21.104;2022-10-16T13:46:01;19.95;61.48
70695;DHT22;58269;52.246;21.104;2022-10-16T13:48:04;19.96;61.78
70695;DHT22;58269;52.246;21.104;2022-10-16T13:50:11;19.93;61.67
70695;DHT22;58269;52.246;21.104;2022-10-16T13:52:20;19.91;61.66
70695;DHT22;58269;52.246;21.104;2022-10-16T13:54:22;19.89;62.08
70695;DHT22;58269;52.246;21.104;2022-10-16T13:56:26;19.89;62.01
70695;DHT22;58269;52.246;21.104;2022-10-16T13:58:28;19.88;61.74
70695;DHT22;58269;52.246;21.104;2022-10-16T14:00:29;19.92;62.29
70695;DHT22;58269;52.246;21.104;2022-10-16T14:04:38;19.86;62.36
70695;DHT22;58269;52.246;21.104;2022-10-16T14:06:44;19.88;62.35
70695;DHT22;58269;52.246;21.104;2022-10-16T14:08:50;19.86;62.34
70695;DHT22;58269;52.246;21.104;2022-10-16T14:10:54;20.26;66.95
70695;DHT22;58269;52.246;21.104;2022-10-16T14:13:07;21.36;65.59
70695;DHT22;58269;52.246;21.104;2022-10-16T14:15:17;22.23;68.26
70695;DHT22;58269;52.246;21.104;2022-10-16T14:17:24;22.72;61.11
70695;DHT22;58269;52.246;21.104;2022-10-16T14:19:27;22.96;54.39
70695;DHT22;58269;52.246;21.104;2022-10-16T14:21:29;22.61;54.90